Time;durP1;ratioP1;P1;durP2;ratioP2;P2;SDS_P1;SDS_P2;PMS_P1;PMS_P2;Temp;Humidity;BMP_temperature;BMP_pressure;BME280_temperature;BME280_humidity;BME280_pressure;Samples;Min_cycle;Max_cycle;Signal;HPM_P1;HPM_P2
2022/12/02 00:00:00;;;;;;;12.30;8.80;;;;;;;;;;108234;1269;22572;-31
2022/12/02 00:02:35;;;;;;;10.10;8.10;;;;;;;;;;108211;1271;23652;-31
2022/12/02 00:05:31;;;;;;;10.80;8.40;;;;;;;;;;108175;1279;25291;-31
2022/12/02 00:08:16;;;;;;;9.60;8.10;;;;;;;;;;108202;1271;22596;-31
2022/12/02 00:10:48;;;;;;;9.70;8.00;;;;;;;;;;108167;1274;23004;-31
2022/12/02 00:13:27;;;;;;;9.30;8.10;;;;;;;;;;108194;1272;22573;-31
2022/12/02 00:16:02;;;;;;;10.50;8.10;;;;;;;;;;108271;1272;22614;-31
2022/12/02 00:18:34;;;;;;;10.00;8.40;;;;;;;;;;108237;1269;22634;-31
2022/12/02 00:21:07;;;;;;;9.30;7.80;;;;;;;;;;108242;1271;22566;-31
2022/12/02 00:23:40;;;;;;;8.90;7.70;;;;;;;;;;108154;1271;22517;-31
2022/12/02 00:26:13;;;;;;;10.30;8.10;;;;;;;;;;108172;1272;22517;-31
2022/12/02 00:28:45;;;;;;;9.30;7.60;;;;;;;;;;108158;1271;22541;-31
2022/12/02 00:31:17;;;;;;;9.90;8.00;;;;;;;;;;108165;1274;22516;-31
2022/12/02 00:33:49;;;;;;;9.40;7.70;;;;;;;;;;108173;1272;22546;-31
2022/12/02 00:36:22;;;;;;;9.20;7.40;;;;;;;;;;108219;1262;22596;-31
2022/12/02 00:38:55;;;;;;;9.90;8.20;;;;;;;;;;108252;1269;22623;-31
2022/12/02 00:41:30;;;;;;;8.20;7.20;;;;;;;;;;108243;1270;22790;-30
2022/12/02 00:46:53;;;;;;;8.80;7.50;;;;;;;;;;108148;1269;22501;-31
2022/12/02 00:49:25;;;;;;;9.40;7.40;;;;;;;;;;108176;1265;22500;-31
2022/12/02 00:52:00;;;;;;;9.30;7.70;;;;;;;;;;108158;1278;22748;-31
2022/12/02 00:54:32;;;;;;;10.00;7.40;;;;;;;;;;108197;1272;22506;-31
2022/12/02 00:57:05;;;;;;;8.70;7.30;;;;;;;;;;108229;1271;25421;-30
2022/12/02 00:59:37;;;;;;;9.20;7.60;;;;;;;;;;108215;1271;22682;-31
2022/12/02 01:02:12;;;;;;;8.80;7.40;;;;;;;;;;108209;1278;22517;-31
2022/12/02 01:04:44;;;;;;;9.00;7.50;;;;;;;;;;108138;1271;22522;-31
2022/12/02 01:07:16;;;;;;;8.40;6.80;;;;;;;;;;108170;1268;22567;-31
2022/12/02 01:09:48;;;;;;;8.50;7.10;;;;;;;;;;108155;1274;22564;-31
2022/12/02 01:12:21;;;;;;;7.80;6.90;;;;;;;;;;108181;1271;22575;-31
2022/12/02 01:14:53;;;;;;;8.60;6.90;;;;;;;;;;108200;1268;25237;-31
2022/12/02 01:17:25;;;;;;;8.00;6.80;;;;;;;;;;108212;1271;22562;-30
2022/12/02 01:19:58;;;;;;;8.60;6.80;;;;;;;;;;108265;1275;22620;-31
2022/12/02 01:22:32;;;;;;;8.50;7.30;;;;;;;;;;108257;1269;22779;-31
2022/12/02 01:25:08;;;;;;;8.20;6.90;;;;;;;;;;108126;1271;22497;-31
2022/12/02 01:27:42;;;;;;;8.40;7.00;;;;;;;;;;108174;1271;22508;-31
2022/12/02 01:30:19;;;;;;;7.80;6.40;;;;;;;;;;108174;1275;22497;-31
2022/12/02 01:32:51;;;;;;;8.70;7.30;;;;;;;;;;108185;1276;23842;-30
2022/12/02 01:35:24;;;;;;;8.20;6.80;;;;;;;;;;108219;1265;22607;-31
2022/12/02 01:37:56;;;;;;;7.90;6.70;;;;;;;;;;108237;1270;25271;-31
2022/12/02 01:40:30;;;;;;;7.80;6.50;;;;;;;;;;108218;1275;25408;-30
2022/12/02 01:43:03;;;;;;;8.50;6.90;;;;;;;;;;108226;1269;25460;-31
2022/12/02 01:45:35;;;;;;;8.10;6.50;;;;;;;;;;108140;1272;25902;-31
2022/12/02 01:48:08;;;;;;;8.30;7.00;;;;;;;;;;108155;1278;22584;-31
2022/12/02 01:50:41;;;;;;;8.60;6.80;;;;;;;;;;108163;1275;24184;-31
2022/12/02 01:53:14;;;;;;;8.00;6.80;;;;;;;;;;108156;1275;22564;-31
2022/12/02 01:55:46;;;;;;;7.80;6.00;;;;;;;;;;108212;1275;22539;-31
2022/12/02 01:58:23;;;;;;;7.60;6.20;;;;;;;;;;108229;1278;22689;-31
2022/12/02 02:00:56;;;;;;;8.70;6.60;;;;;;;;;;108245;1275;22526;-31
2022/12/02 02:03:30;;;;;;;8.40;6.70;;;;;;;;;;108244;1271;22562;-31
2022/12/02 02:06:02;;;;;;;8.20;6.40;;;;;;;;;;108182;1272;22571;-31
2022/12/02 02:08:35;;;;;;;7.20;6.20;;;;;;;;;;108243;1275;22564;-31
2022/12/02 02:11:07;;;;;;;7.70;6.40;;;;;;;;;;108258;1278;22562;-31
2022/12/02 02:13:39;;;;;;;7.70;6.30;;;;;;;;;;108254;1272;22506;-31
2022/12/02 02:16:14;;;;;;;7.30;6.20;;;;;;;;;;108155;1273;22542;-31
2022/12/02 02:18:46;;;;;;;7.90;6.40;;;;;;;;;;108180;1269;22566;-31
2022/12/02 02:21:22;;;;;;;7.00;5.90;;;;;;;;;;108175;1271;25411;-31
2022/12/02 02:24:00;;;;;;;7.80;6.00;;;;;;;;;;108193;1268;24432;-30
2022/12/02 02:26:33;;;;;;;7.70;6.20;;;;;;;;;;108205;1271;23849;-31
2022/12/02 02:29:05;;;;;;;7.00;5.70;;;;;;;;;;108225;1268;23865;-31
2022/12/02 02:31:39;;;;;;;7.30;5.90;;;;;;;;;;108276;1271;25293;-31
2022/12/02 02:34:13;;;;;;;7.50;5.90;;;;;;;;;;108223;1262;22728;-31
2022/12/02 02:36:43;;;;;;;;;;;;;;;;;;108294;1272;25313;-31
2022/12/02 02:39:16;;;;;;;7.70;5.90;;;;;;;;;;108177;1274;25541;-31
2022/12/02 02:41:48;;;;;;;7.30;5.50;;;;;;;;;;108143;1273;23622;-31
2022/12/02 02:44:21;;;;;;;7.60;6.00;;;;;;;;;;108178;1273;22513;-31
2022/12/02 02:46:56;;;;;;;7.50;5.90;;;;;;;;;;108195;1271;22504;-31
2022/12/02 02:49:27;;;;;;;;;;;;;;;;;;108264;1276;22609;-31
2022/12/02 02:52:02;;;;;;;7.60;5.80;;;;;;;;;;108210;1275;22519;-31
2022/12/02 02:54:34;;;;;;;7.00;5.90;;;;;;;;;;108223;1275;22701;-31
2022/12/02 02:57:10;;;;;;;6.90;6.00;;;;;;;;;;108162;1278;22847;-31
2022/12/02 02:59:44;;;;;;;7.60;6.00;;;;;;;;;;108162;1279;22570;-30
2022/12/02 03:02:16;;;;;;;7.90;5.90;;;;;;;;;;108179;1271;22504;-31
2022/12/02 03:04:50;;;;;;;7.10;5.60;;;;;;;;;;108161;1272;22569;-31
2022/12/02 03:07:23;;;;;;;7.50;5.50;;;;;;;;;;108211;1275;22579;-28
2022/12/02 03:09:58;;;;;;;7.40;6.20;;;;;;;;;;108252;1278;22563;-28
2022/12/02 03:12:33;;;;;;;7.60;5.70;;;;;;;;;;108242;1269;22559;-28
2022/12/02 03:15:08;;;;;;;7.30;5.80;;;;;;;;;;108227;1278;23292;-28
2022/12/02 03:17:41;;;;;;;7.70;5.70;;;;;;;;;;108281;1274;24323;-28
2022/12/02 03:20:14;;;;;;;7.00;6.00;;;;;;;;;;108172;1268;22562;-28
2022/12/02 03:22:47;;;;;;;7.10;5.80;;;;;;;;;;108186;1272;23053;-28
2022/12/02 03:25:20;;;;;;;7.50;5.90;;;;;;;;;;108165;1278;25298;-28
2022/12/02 03:27:54;;;;;;;7.00;5.90;;;;;;;;;;108195;1270;23894;-27
2022/12/02 03:30:29;;;;;;;7.40;5.60;;;;;;;;;;108251;1275;22577;-28
2022/12/02 03:33:04;;;;;;;7.40;5.60;;;;;;;;;;108232;1278;22661;-28
2022/12/02 03:35:37;;;;;;;7.00;5.70;;;;;;;;;;108261;1278;25221;-28
2022/12/02 03:38:09;;;;;;;7.40;6.00;;;;;;;;;;108131;1272;22532;-28
2022/12/02 03:40:42;;;;;;;7.40;5.50;;;;;;;;;;108174;1278;23839;-28
2022/12/02 03:43:14;;;;;;;7.60;6.00;;;;;;;;;;108180;1273;25417;-28
2022/12/02 03:45:47;;;;;;;7.40;5.50;;;;;;;;;;108131;1275;22582;-28
2022/12/02 03:48:21;;;;;;;7.10;5.60;;;;;;;;;;108193;1275;22570;-28
2022/12/02 03:50:55;;;;;;;7.00;5.70;;;;;;;;;;108222;1262;22569;-28
2022/12/02 03:53:29;;;;;;;7.20;5.50;;;;;;;;;;108238;1275;22507;-28
2022/12/02 03:56:03;;;;;;;6.90;5.80;;;;;;;;;;108241;1278;23058;-28
2022/12/02 03:58:45;;;;;;;7.10;5.60;;;;;;;;;;108283;1275;22515;-28
2022/12/02 04:01:18;;;;;;;6.90;5.50;;;;;;;;;;108146;1271;22557;-28
2022/12/02 04:03:51;;;;;;;7.00;5.90;;;;;;;;;;108129;1273;22487;-28
2022/12/02 04:06:23;;;;;;;7.10;5.40;;;;;;;;;;108151;1277;22813;-28
2022/12/02 04:08:55;;;;;;;6.80;5.60;;;;;;;;;;108208;1275;23708;-28
2022/12/02 04:11:28;;;;;;;7.00;6.00;;;;;;;;;;108207;1274;22506;-28
2022/12/02 04:14:00;;;;;;;7.10;5.50;;;;;;;;;;108146;1271;22558;-28
2022/12/02 04:16:32;;;;;;;6.60;5.70;;;;;;;;;;108228;1278;24203;-27
2022/12/02 04:19:04;;;;;;;7.20;5.80;;;;;;;;;;108203;1278;25348;-28
2022/12/02 04:21:39;;;;;;;6.90;5.70;;;;;;;;;;108245;1276;25256;-28
2022/12/02 04:24:12;;;;;;;6.80;5.70;;;;;;;;;;108231;1270;24181;-28
2022/12/02 04:26:49;;;;;;;7.20;5.70;;;;;;;;;;108243;1275;22569;-28
2022/12/02 04:29:24;;;;;;;7.20;5.80;;;;;;;;;;108104;1273;22595;-28
2022/12/02 04:31:56;;;;;;;7.00;5.30;;;;;;;;;;108120;1280;22590;-28
2022/12/02 04:34:34;;;;;;;7.20;5.70;;;;;;;;;;108127;1272;22575;-28
2022/12/02 04:37:07;;;;;;;8.00;5.30;;;;;;;;;;108137;1281;22559;-28
2022/12/02 04:39:39;;;;;;;7.00;5.50;;;;;;;;;;108326;1278;22578;-28
2022/12/02 04:42:11;;;;;;;7.50;5.70;;;;;;;;;;108204;1269;25504;-28
2022/12/02 04:44:44;;;;;;;7.00;5.60;;;;;;;;;;108209;1275;22619;-28
2022/12/02 04:47:16;;;;;;;7.90;5.70;;;;;;;;;;108219;1273;25392;-28
2022/12/02 04:49:48;;;;;;;7.30;5.70;;;;;;;;;;108128;1278;22519;-28
2022/12/02 04:52:21;;;;;;;6.50;5.40;;;;;;;;;;108180;1275;22504;-28
2022/12/02 04:54:53;;;;;;;7.30;5.80;;;;;;;;;;108188;1273;22565;-28
2022/12/02 04:57:25;;;;;;;7.00;5.60;;;;;;;;;;108149;1277;22568;-28
2022/12/02 04:59:59;;;;;;;7.40;5.70;;;;;;;;;;108208;1270;23027;-28
2022/12/02 05:02:31;;;;;;;7.00;5.50;;;;;;;;;;108204;1278;22499;-28
2022/12/02 05:05:04;;;;;;;7.40;5.60;;;;;;;;;;108230;1278;22533;-28
2022/12/02 05:07:37;;;;;;;7.30;5.60;;;;;;;;;;108217;1278;22624;-28
2022/12/02 05:10:16;;;;;;;7.50;6.10;;;;;;;;;;108082;1273;22560;-28
2022/12/02 05:12:48;;;;;;;7.10;5.30;;;;;;;;;;108120;1269;22624;-28
2022/12/02 05:15:21;;;;;;;6.90;5.30;;;;;;;;;;108113;1278;22584;-27
2022/12/02 05:17:56;;;;;;;7.00;5.60;;;;;;;;;;108141;1271;22601;-28
2022/12/02 05:20:28;;;;;;;7.10;5.70;;;;;;;;;;108153;1271;22563;-28
2022/12/02 05:23:00;;;;;;;6.70;5.20;;;;;;;;;;108182;1275;22728;-27
2022/12/02 05:25:33;;;;;;;7.20;5.90;;;;;;;;;;108175;1270;22589;-27
2022/12/02 05:28:05;;;;;;;7.70;5.60;;;;;;;;;;108163;1275;22711;-28
2022/12/02 05:30:37;;;;;;;6.70;5.40;;;;;;;;;;108105;1271;22554;-28
2022/12/02 05:33:10;;;;;;;7.00;5.60;;;;;;;;;;108159;1277;25384;-28
2022/12/02 05:35:42;;;;;;;6.30;4.90;;;;;;;;;;108158;1278;25446;-27
2022/12/02 05:38:14;;;;;;;6.80;5.40;;;;;;;;;;108141;1278;22569;-27
2022/12/02 05:40:46;;;;;;;7.10;5.60;;;;;;;;;;108161;1277;22546;-27
2022/12/02 05:43:23;;;;;;;6.40;5.20;;;;;;;;;;108196;1278;22541;-28
2022/12/02 05:46:00;;;;;;;6.80;5.60;;;;;;;;;;108203;1276;22569;-27
2022/12/02 05:48:36;;;;;;;6.70;5.10;;;;;;;;;;108181;1274;22567;-27
2022/12/02 05:51:23;;;;;;;7.40;5.50;;;;;;;;;;108104;1276;22616;-28
2022/12/02 05:53:55;;;;;;;6.80;5.00;;;;;;;;;;108136;1278;22581;-28
2022/12/02 05:56:30;;;;;;;6.80;5.30;;;;;;;;;;108145;1277;22572;-28
2022/12/02 05:59:11;;;;;;;8.10;5.40;;;;;;;;;;108126;1278;22584;-28
2022/12/02 06:01:48;;;;;;;7.20;5.30;;;;;;;;;;108204;1275;22558;-28
2022/12/02 06:04:24;;;;;;;6.90;5.10;;;;;;;;;;108205;1277;22560;-28
2022/12/02 06:07:02;;;;;;;6.70;5.40;;;;;;;;;;108215;1269;25409;-29
2022/12/02 06:09:36;;;;;;;6.90;5.60;;;;;;;;;;108168;1275;22568;-26
2022/12/02 06:12:19;;;;;;;7.30;5.90;;;;;;;;;;108124;1274;22571;-28
2022/12/02 06:14:55;;;;;;;6.70;5.30;;;;;;;;;;108122;1272;22549;-28
2022/12/02 06:17:30;;;;;;;7.00;5.60;;;;;;;;;;108134;1278;22564;-28
2022/12/02 06:20:02;;;;;;;6.80;5.20;;;;;;;;;;108092;1278;22729;-28
2022/12/02 06:22:37;;;;;;;7.50;5.80;;;;;;;;;;108212;1276;22543;-28
2022/12/02 06:25:29;;;;;;;6.70;5.50;;;;;;;;;;108198;1271;22587;-28
2022/12/02 06:28:12;;;;;;;7.00;5.30;;;;;;;;;;108190;1278;22562;-28
2022/12/02 06:30:44;;;;;;;6.80;5.60;;;;;;;;;;108140;1278;22571;-27
2022/12/02 06:33:31;;;;;;;7.90;5.10;;;;;;;;;;108155;1278;22556;-28
2022/12/02 06:36:09;;;;;;;6.50;5.30;;;;;;;;;;108117;1271;25295;-27
2022/12/02 06:38:51;;;;;;;6.60;5.30;;;;;;;;;;108113;1277;22576;-28
2022/12/02 06:41:26;;;;;;;8.90;5.60;;;;;;;;;;108146;1278;22563;-28
2022/12/02 06:47:21;;;;;;;6.50;5.20;;;;;;;;;;108113;1275;22561;-28
2022/12/02 06:49:56;;;;;;;7.50;5.10;;;;;;;;;;108208;1274;22574;-28
2022/12/02 06:52:28;;;;;;;6.70;4.90;;;;;;;;;;108102;1277;24050;-27
2022/12/02 06:55:02;;;;;;;7.60;5.10;;;;;;;;;;108155;1273;22558;-28
2022/12/02 06:57:35;;;;;;;7.60;5.30;;;;;;;;;;108136;1278;22693;-27
2022/12/02 07:00:12;;;;;;;6.60;5.10;;;;;;;;;;107913;1278;304383;-27
2022/12/02 07:02:47;;;;;;;7.90;5.40;;;;;;;;;;108261;1278;22568;-27
2022/12/02 07:05:22;;;;;;;6.80;5.10;;;;;;;;;;108157;1278;22565;-28
2022/12/02 07:07:55;;;;;;;6.50;5.30;;;;;;;;;;108155;1278;22679;-27
2022/12/02 07:10:29;;;;;;;7.90;5.20;;;;;;;;;;108170;1278;22588;-27
2022/12/02 07:13:08;;;;;;;7.50;5.10;;;;;;;;;;108169;1280;22574;-27
2022/12/02 07:15:43;;;;;;;6.70;5.00;;;;;;;;;;108178;1272;22613;-27
2022/12/02 07:18:19;;;;;;;7.20;5.50;;;;;;;;;;108225;1276;22565;-27
2022/12/02 07:20:51;;;;;;;6.40;5.30;;;;;;;;;;108177;1277;22594;-27
2022/12/02 07:23:28;;;;;;;7.80;5.20;;;;;;;;;;108149;1277;22557;-28
2022/12/02 07:26:02;;;;;;;7.90;5.70;;;;;;;;;;108145;1272;22590;-28
2022/12/02 07:28:38;;;;;;;7.70;5.20;;;;;;;;;;108119;1281;22573;-27
2022/12/02 07:31:21;;;;;;;6.70;5.00;;;;;;;;;;108072;1277;22580;-28
2022/12/02 07:33:54;;;;;;;7.60;5.40;;;;;;;;;;108194;1279;22700;-27
2022/12/02 07:36:26;;;;;;;7.10;5.40;;;;;;;;;;108179;1278;22655;-27
2022/12/02 07:38:58;;;;;;;6.30;5.00;;;;;;;;;;108183;1273;22618;-27
2022/12/02 07:41:30;;;;;;;7.20;5.60;;;;;;;;;;108195;1276;24671;-28
2022/12/02 07:44:05;;;;;;;7.00;5.10;;;;;;;;;;108112;1278;22582;-28
2022/12/02 07:46:38;;;;;;;8.00;5.30;;;;;;;;;;108107;1278;22601;-28
2022/12/02 07:49:10;;;;;;;9.20;5.30;;;;;;;;;;108115;1278;25550;-28
2022/12/02 07:51:43;;;;;;;7.60;5.00;;;;;;;;;;108129;1279;22580;-27
2022/12/02 07:54:15;;;;;;;7.00;5.30;;;;;;;;;;108184;1278;22564;-27
2022/12/02 07:56:48;;;;;;;7.30;5.10;;;;;;;;;;108195;1278;25677;-27
2022/12/02 07:59:20;;;;;;;8.10;5.30;;;;;;;;;;108205;1279;22568;-28
2022/12/02 08:01:53;;;;;;;7.80;5.00;;;;;;;;;;108197;1278;22538;-28
2022/12/02 08:04:25;;;;;;;6.30;4.80;;;;;;;;;;108137;1272;22585;-28
2022/12/02 08:06:57;;;;;;;6.60;5.30;;;;;;;;;;108133;1277;22577;-28
2022/12/02 08:09:30;;;;;;;7.20;5.30;;;;;;;;;;108123;1278;22536;-27
2022/12/02 08:12:03;;;;;;;7.40;5.40;;;;;;;;;;108124;1278;22571;-26
2022/12/02 08:14:37;;;;;;;7.10;5.30;;;;;;;;;;108103;1277;22573;-26
2022/12/02 08:17:10;;;;;;;8.80;5.30;;;;;;;;;;108137;1278;22574;-27
2022/12/02 08:19:42;;;;;;;8.50;5.30;;;;;;;;;;108130;1278;22604;-28
2022/12/02 08:22:16;;;;;;;6.60;5.20;;;;;;;;;;108109;1278;22624;-28
2022/12/02 08:24:50;;;;;;;7.60;5.30;;;;;;;;;;108123;1278;22574;-28
2022/12/02 08:27:26;;;;;;;8.70;5.30;;;;;;;;;;108190;1278;22583;-27
2022/12/02 08:29:58;;;;;;;9.20;5.30;;;;;;;;;;108190;1275;22560;-27
2022/12/02 08:32:30;;;;;;;7.10;5.50;;;;;;;;;;108158;1270;22567;-27
2022/12/02 08:35:04;;;;;;;7.30;5.30;;;;;;;;;;108058;1271;25234;-27
2022/12/02 08:37:36;;;;;;;8.20;5.90;;;;;;;;;;108139;1273;22558;-26
2022/12/02 08:40:14;;;;;;;8.50;5.50;;;;;;;;;;108166;1278;22588;-27
2022/12/02 08:42:48;;;;;;;7.80;5.20;;;;;;;;;;108125;1279;22592;-28
2022/12/02 08:45:20;;;;;;;8.50;5.40;;;;;;;;;;108072;1273;22620;-28
2022/12/02 08:47:53;;;;;;;6.80;5.30;;;;;;;;;;108136;1278;25380;-28
2022/12/02 08:50:25;;;;;;;8.40;5.20;;;;;;;;;;108117;1276;22579;-28
2022/12/02 08:52:58;;;;;;;7.00;5.30;;;;;;;;;;108043;1273;25303;-34
2022/12/02 08:55:32;;;;;;;8.20;5.30;;;;;;;;;;108208;1276;26156;-34
2022/12/02 08:58:07;;;;;;;7.80;5.70;;;;;;;;;;108030;1275;22591;-33
2022/12/02 09:00:40;;;;;;;7.90;5.80;;;;;;;;;;108130;1278;22599;-34
2022/12/02 09:03:14;;;;;;;;;;;;;;;;;;108115;1278;22552;-32
2022/12/02 09:05:45;;;;;;;;;;;;;;;;;;108128;1278;22580;-33
2022/12/02 09:08:17;;;;;;;7.00;5.20;;;;;;;;;;108145;1278;26628;-33
2022/12/02 09:10:49;;;;;;;7.30;5.70;;;;;;;;;;108130;1278;22555;-32
2022/12/02 09:13:25;;;;;;;6.90;5.50;;;;;;;;;;108141;1272;22564;-32
2022/12/02 09:16:00;;;;;;;7.50;5.40;;;;;;;;;;108127;1278;22650;-32
2022/12/02 09:18:33;;;;;;;8.00;5.30;;;;;;;;;;108092;1277;22620;-32
2022/12/02 09:21:05;;;;;;;8.10;5.80;;;;;;;;;;108093;1279;22725;-31
2022/12/02 09:23:38;;;;;;;7.20;5.90;;;;;;;;;;108097;1277;22619;-31
2022/12/02 09:26:11;;;;;;;8.70;6.00;;;;;;;;;;108081;1275;22575;-33
2022/12/02 09:28:44;;;;;;;7.40;5.70;;;;;;;;;;108173;1279;22575;-32
2022/12/02 09:31:19;;;;;;;7.90;5.90;;;;;;;;;;108135;1275;25228;-33
2022/12/02 09:33:52;;;;;;;6.50;5.40;;;;;;;;;;108143;1278;26638;-33
2022/12/02 09:36:28;;;;;;;7.70;5.70;;;;;;;;;;108165;1278;22589;-33
2022/12/02 09:39:01;;;;;;;7.00;5.70;;;;;;;;;;108163;1269;22565;-32
2022/12/02 09:41:33;;;;;;;7.80;5.40;;;;;;;;;;108176;1278;25451;-33
2022/12/02 09:44:07;;;;;;;7.70;5.80;;;;;;;;;;108185;1270;22585;-33
2022/12/02 09:46:42;;;;;;;8.00;5.80;;;;;;;;;;108111;1272;22574;-34
2022/12/02 09:49:15;;;;;;;6.80;5.30;;;;;;;;;;108157;1277;22548;-34
2022/12/02 09:51:47;;;;;;;7.80;5.40;;;;;;;;;;108160;1275;22583;-33
2022/12/02 09:54:27;;;;;;;7.90;5.60;;;;;;;;;;108098;1274;25350;-36
2022/12/02 09:56:59;;;;;;;7.80;6.10;;;;;;;;;;108110;1274;22568;-33
2022/12/02 09:59:31;;;;;;;7.10;5.70;;;;;;;;;;108143;1278;22575;-34
2022/12/02 10:02:03;;;;;;;7.20;5.50;;;;;;;;;;108074;1278;22588;-32
2022/12/02 10:04:36;;;;;;;8.00;6.10;;;;;;;;;;108143;1275;22680;-32
2022/12/02 10:07:12;;;;;;;7.60;5.40;;;;;;;;;;108081;1272;22568;-32
2022/12/02 10:09:44;;;;;;;7.10;5.60;;;;;;;;;;108095;1273;22632;-32
2022/12/02 10:12:16;;;;;;;7.40;5.50;;;;;;;;;;108095;1277;22603;-32
2022/12/02 10:14:52;;;;;;;8.70;5.90;;;;;;;;;;108103;1271;22568;-32
2022/12/02 10:17:29;;;;;;;7.60;5.90;;;;;;;;;;108098;1275;22572;-33
2022/12/02 10:20:02;;;;;;;8.50;6.00;;;;;;;;;;108184;1278;22573;-33
2022/12/02 10:22:34;;;;;;;7.80;6.00;;;;;;;;;;108160;1272;22591;-32
2022/12/02 10:25:08;;;;;;;7.90;5.90;;;;;;;;;;108175;1278;22585;-32
2022/12/02 10:27:41;;;;;;;8.00;6.30;;;;;;;;;;108105;1273;22646;-32
2022/12/02 10:30:25;;;;;;;7.50;6.30;;;;;;;;;;108077;1274;22705;-32
2022/12/02 10:33:07;;;;;;;8.30;6.30;;;;;;;;;;108131;1278;22513;-33
2022/12/02 10:35:49;;;;;;;8.30;6.20;;;;;;;;;;108096;1271;22567;-32
2022/12/02 10:38:37;;;;;;;7.10;6.00;;;;;;;;;;108107;1278;22586;-33
2022/12/02 10:41:29;;;;;;;7.80;5.90;;;;;;;;;;108157;1278;22569;-32
2022/12/02 10:44:17;;;;;;;8.20;6.40;;;;;;;;;;108131;1278;22612;-33
2022/12/02 10:46:51;;;;;;;8.60;6.60;;;;;;;;;;108127;1272;22588;-34
2022/12/02 10:49:35;;;;;;;8.40;6.50;;;;;;;;;;108127;1277;22835;-35
2022/12/02 10:52:14;;;;;;;8.10;6.60;;;;;;;;;;108159;1275;25412;-33
2022/12/02 10:54:51;;;;;;;7.60;6.20;;;;;;;;;;108076;1271;22569;-35
2022/12/02 10:57:31;;;;;;;8.70;6.50;;;;;;;;;;108122;1271;22720;-34
2022/12/02 11:00:16;;;;;;;8.30;6.90;;;;;;;;;;108110;1275;25272;-34
2022/12/02 11:02:51;;;;;;;8.40;6.60;;;;;;;;;;108108;1275;22585;-34
2022/12/02 11:05:34;;;;;;;8.90;6.90;;;;;;;;;;108146;1271;22560;-34
2022/12/02 11:08:16;;;;;;;8.50;6.70;;;;;;;;;;108090;1273;22584;-35
2022/12/02 11:11:05;;;;;;;9.20;7.10;;;;;;;;;;108141;1275;22564;-33
2022/12/02 11:13:59;;;;;;;8.90;7.30;;;;;;;;;;108143;1271;22561;-35
2022/12/02 11:17:12;;;;;;;7.80;6.60;;;;;;;;;;108089;1275;22591;-35
2022/12/02 11:19:50;;;;;;;9.40;7.20;;;;;;;;;;108125;1273;22572;-34
2022/12/02 11:22:56;;;;;;;8.80;6.90;;;;;;;;;;108074;1277;22569;-34
2022/12/02 11:26:09;;;;;;;10.00;7.30;;;;;;;;;;108109;1278;22574;-35
2022/12/02 11:29:16;;;;;;;9.20;7.10;;;;;;;;;;108059;1278;24409;-35
2022/12/02 11:32:17;;;;;;;9.30;7.60;;;;;;;;;;108134;1274;22571;-33
2022/12/02 11:34:52;;;;;;;8.60;6.60;;;;;;;;;;108123;1275;24285;-33
2022/12/02 11:37:51;;;;;;;9.30;7.60;;;;;;;;;;108162;1269;22658;-35
2022/12/02 11:41:01;;;;;;;8.20;7.00;;;;;;;;;;108064;1265;22571;-33
2022/12/02 11:44:11;;;;;;;7.80;6.50;;;;;;;;;;108166;1272;22577;-33
2022/12/02 11:46:58;;;;;;;8.90;7.30;;;;;;;;;;108092;1277;25344;-33
2022/12/02 11:49:38;;;;;;;8.60;7.20;;;;;;;;;;108052;1271;25451;-33
2022/12/02 11:52:27;;;;;;;7.70;6.80;;;;;;;;;;108135;1275;25221;-33
2022/12/02 11:55:15;;;;;;;8.60;6.90;;;;;;;;;;108184;1278;22594;-33
2022/12/02 11:57:53;;;;;;;8.30;6.90;;;;;;;;;;108114;1271;22593;-33
2022/12/02 12:00:33;;;;;;;8.70;6.90;;;;;;;;;;108047;1276;22572;-33
2022/12/02 12:03:12;;;;;;;9.60;7.00;;;;;;;;;;108101;1278;22574;-33
2022/12/02 12:06:10;;;;;;;8.60;6.80;;;;;;;;;;108110;1278;22676;-33
2022/12/02 12:08:45;;;;;;;8.40;7.30;;;;;;;;;;108035;1277;22664;-32
2022/12/02 12:11:26;;;;;;;8.40;7.30;;;;;;;;;;108147;1272;22620;-32
2022/12/02 12:14:19;;;;;;;9.30;7.40;;;;;;;;;;108176;1275;22571;-32
2022/12/02 12:16:52;;;;;;;8.80;7.10;;;;;;;;;;108185;1272;22571;-32
2022/12/02 12:19:35;;;;;;;8.70;7.20;;;;;;;;;;108095;1272;25875;-32
2022/12/02 12:22:28;;;;;;;8.80;7.20;;;;;;;;;;108097;1275;26450;-32
2022/12/02 12:25:38;;;;;;;9.70;7.60;;;;;;;;;;108070;1272;22783;-32
2022/12/02 12:28:30;;;;;;;9.10;7.00;;;;;;;;;;108084;1275;22570;-33
2022/12/02 12:31:06;;;;;;;9.80;7.60;;;;;;;;;;108117;1274;22674;-32
2022/12/02 12:33:40;;;;;;;10.10;8.00;;;;;;;;;;108194;1278;22562;-33
2022/12/02 12:36:12;;;;;;;9.50;7.70;;;;;;;;;;108187;1278;22562;-33
2022/12/02 12:38:46;;;;;;;8.30;7.30;;;;;;;;;;108178;1272;22706;-32
2022/12/02 12:41:22;;;;;;;9.80;7.90;;;;;;;;;;108102;1275;22569;-30
2022/12/02 12:43:54;;;;;;;9.20;7.80;;;;;;;;;;108118;1271;22588;-33
2022/12/02 12:46:27;;;;;;;8.90;7.50;;;;;;;;;;108091;1274;22564;-32
2022/12/02 12:49:02;;;;;;;9.30;7.50;;;;;;;;;;108104;1279;22676;-32
2022/12/02 12:51:35;;;;;;;9.30;7.90;;;;;;;;;;108077;1278;22734;-32
2022/12/02 12:54:06;;;;;;;;;;;;;;;;;;108100;1279;22568;-35
2022/12/02 12:56:38;;;;;;;8.90;7.90;;;;;;;;;;108117;1275;22601;-33
2022/12/02 12:59:12;;;;;;;9.20;7.70;;;;;;;;;;108057;1271;22570;-33
2022/12/02 13:01:47;;;;;;;9.90;7.90;;;;;;;;;;108087;1269;25237;-35
2022/12/02 13:04:22;;;;;;;9.10;7.70;;;;;;;;;;108102;1273;22573;-36
2022/12/02 13:06:56;;;;;;;9.30;7.80;;;;;;;;;;108201;1275;22566;-36
2022/12/02 13:09:28;;;;;;;9.40;8.00;;;;;;;;;;108200;1272;22564;-36
2022/12/02 13:12:15;;;;;;;9.00;7.50;;;;;;;;;;107982;1275;25464;-36
2022/12/02 13:14:50;;;;;;;9.30;7.60;;;;;;;;;;108294;1271;22571;-36
2022/12/02 13:17:25;;;;;;;9.90;8.40;;;;;;;;;;108158;1272;22653;-36
2022/12/02 13:19:57;;;;;;;9.50;7.40;;;;;;;;;;108111;1279;25930;-36
2022/12/02 13:22:29;;;;;;;9.30;7.60;;;;;;;;;;108167;1272;22622;-36
2022/12/02 13:25:05;;;;;;;9.70;8.20;;;;;;;;;;108204;1275;22628;-36
2022/12/02 13:27:37;;;;;;;9.60;7.10;;;;;;;;;;108209;1277;22580;-36
2022/12/02 13:30:14;;;;;;;8.50;7.50;;;;;;;;;;108199;1275;22564;-35
2022/12/02 13:32:47;;;;;;;9.30;7.70;;;;;;;;;;108323;1278;22571;-35
2022/12/02 13:35:20;;;;;;;9.30;7.80;;;;;;;;;;108223;1272;25408;-35
2022/12/02 13:37:53;;;;;;;9.00;7.80;;;;;;;;;;108169;1269;22567;-35
2022/12/02 13:40:24;;;;;;;;;;;;;;;;;;108230;1272;22557;-35
2022/12/02 13:42:57;;;;;;;10.00;7.70;;;;;;;;;;108130;1273;22571;-35
2022/12/02 13:45:34;;;;;;;9.10;7.40;;;;;;;;;;108173;1272;22660;-35
2022/12/02 13:48:08;;;;;;;9.40;7.70;;;;;;;;;;108234;1272;22578;-34
2022/12/02 13:50:43;;;;;;;9.20;7.50;;;;;;;;;;108188;1271;22570;-35
2022/12/02 13:53:15;;;;;;;9.10;7.50;;;;;;;;;;108165;1278;22530;-35
2022/12/02 13:55:50;;;;;;;8.90;7.30;;;;;;;;;;108213;1275;22592;-36
2022/12/02 13:58:27;;;;;;;8.60;7.70;;;;;;;;;;108230;1272;22591;-35
2022/12/02 14:00:59;;;;;;;9.10;7.60;;;;;;;;;;108225;1271;22571;-35
2022/12/02 14:03:31;;;;;;;9.20;8.10;;;;;;;;;;108108;1271;24897;-35
2022/12/02 14:06:04;;;;;;;9.60;8.10;;;;;;;;;;108137;1272;22572;-34
2022/12/02 14:08:36;;;;;;;10.20;8.00;;;;;;;;;;108127;1271;22575;-35
2022/12/02 14:11:09;;;;;;;9.60;8.60;;;;;;;;;;108123;1271;22574;-35
2022/12/02 14:13:42;;;;;;;9.70;8.00;;;;;;;;;;108157;1272;22666;-35
2022/12/02 14:16:17;;;;;;;9.40;8.00;;;;;;;;;;108188;1272;22548;-35
2022/12/02 14:18:51;;;;;;;9.60;8.10;;;;;;;;;;108172;1271;22708;-35
2022/12/02 14:21:24;;;;;;;10.00;8.10;;;;;;;;;;108203;1272;22561;-35
2022/12/02 14:23:57;;;;;;;8.70;7.80;;;;;;;;;;108091;1271;22543;-34
2022/12/02 14:26:30;;;;;;;9.70;8.30;;;;;;;;;;108148;1272;22575;-35
2022/12/02 14:29:03;;;;;;;9.80;8.10;;;;;;;;;;108116;1271;22659;-35
2022/12/02 14:31:36;;;;;;;9.90;8.10;;;;;;;;;;108141;1273;25878;-34
2022/12/02 14:34:10;;;;;;;10.40;8.10;;;;;;;;;;108161;1270;25532;-35
2022/12/02 14:36:43;;;;;;;9.50;7.90;;;;;;;;;;108201;1272;22561;-35
2022/12/02 14:39:16;;;;;;;9.70;8.20;;;;;;;;;;108180;1275;22714;-36
2022/12/02 14:41:48;;;;;;;9.90;8.20;;;;;;;;;;108176;1271;22538;-34
2022/12/02 14:44:20;;;;;;;9.30;8.10;;;;;;;;;;108175;1274;22636;-34
2022/12/02 14:46:55;;;;;;;9.70;7.90;;;;;;;;;;108214;1272;22569;-34
2022/12/02 14:49:28;;;;;;;9.40;8.30;;;;;;;;;;108221;1277;23538;-34
2022/12/02 14:52:00;;;;;;;9.10;8.00;;;;;;;;;;108082;1277;22913;-34
2022/12/02 14:54:33;;;;;;;9.50;8.30;;;;;;;;;;108229;1275;22582;-34
2022/12/02 14:57:12;;;;;;;10.20;8.50;;;;;;;;;;108298;1271;22566;-34
2022/12/02 14:59:46;;;;;;;10.20;8.80;;;;;;;;;;108178;1271;319846;-34
2022/12/02 15:02:18;;;;;;;10.70;8.30;;;;;;;;;;109209;1269;22569;-34
2022/12/02 15:04:51;;;;;;;10.90;8.70;;;;;;;;;;109000;1271;22561;-34
2022/12/02 15:07:24;;;;;;;11.70;9.00;;;;;;;;;;109160;1271;22838;-34
2022/12/02 15:09:56;;;;;;;11.20;8.70;;;;;;;;;;108221;1272;22559;-32
2022/12/02 15:12:29;;;;;;;10.40;8.20;;;;;;;;;;108102;1274;22570;-32
2022/12/02 15:15:04;;;;;;;10.20;8.60;;;;;;;;;;108119;1270;22582;-32
2022/12/02 15:17:41;;;;;;;9.60;8.30;;;;;;;;;;108189;1277;22588;-33
2022/12/02 15:20:18;;;;;;;10.70;8.80;;;;;;;;;;108221;1272;22561;-33
2022/12/02 15:22:51;;;;;;;10.70;8.90;;;;;;;;;;108183;1275;25236;-34
2022/12/02 15:25:28;;;;;;;10.90;8.60;;;;;;;;;;108163;1271;25234;-32